LERS/REU METAR and TAF weather

Enter ICAO airport designator
Station Type Date Time Source
LERS METAR 2021/09/25 12:00 UTC NOAA

LERS 251200Z 17007KT 100V210 9999 FEW018 SCT034 27/22 Q1017


Station Type Date Time Source
LERS Decoded METAR 2021/09/25 12:00 UTC NOAA

Reus / Aeropuerto, Spain (LERS) 41-09N 001-10E 76M
Sep 25, 2021 - 08:00 AM EDT / 2021.09.25 1200 UTC
Wind: from the S (170 degrees) at 8 MPH (7 KT) (direction variable):0
Visibility: greater than 7 mile(s):0
Sky conditions: partly cloudy
Temperature: 80 F (27 C)
Dew Point: 71 F (22 C)
Relative Humidity: 74%
Pressure (altimeter): 30.03 in. Hg (1017 hPa)
ob: LERS 251200Z 17007KT 100V210 9999 FEW018 SCT034 27/22 Q1017
cycle: 12

Station Type Date Time Source
LERS TAF 2021/09/25 09:27 UTC NOAA

TAF LERS 250800Z 2509/2609 VRB03KT 9999 SCT025 TX28/2513Z TN16/2605Z PROB40
TEMPO 2510/2518 TS SHRA FEW040CB

Example: see airport list